Haggerty Girls — WDG9740 — position and weather

sailwx.info

Track history (hours):
 
Tides and Currents Weather Stations Pressure Air Temp Water Temp Dewpoint Dewpoint Depression Visibility Wind Speed Wind Dir Waves Ship Positions

Haggerty Girls

Owner: REINAUER TRANSPORTATION CO.,LLC, STATEN ISLAND, NY. More information available from US FCC via Universal Licensing System and Coast Guard Vessel Documentation Center.

Last reported at 2018-Jan-10 18:30 UTC. Time now 2018-Jan-22 13:54 UTC.
Position N 41°35' W 071°25'.
Warning: this ship's position is 11 days out of date.

Length 146 m; draft 7.5 m.

Type: . MMSI: 367590780.

Date/timePositionNaut miles runAvg speedWind from/ knotsBaromVisibWave heightAir tempDewpointWater temp
2018-Jan-10 18:30N 41°35' W 071°25'0 0.0
2018-Jan-10 17:48N 41°35' W 071°25'0 0.0
2018-Jan-10 17:30N 41°35' W 071°25'0 0.0
2018-Jan-10 16:53N 41°35' W 071°25'0 0.0
2018-Jan-10 16:30N 41°35' W 071°25'0 0.0
2018-Jan-10 15:54N 41°35' W 071°25'0 0.0
2018-Jan-10 15:29N 41°35' W 071°25'0 0.0
2018-Jan-10 14:59N 41°35' W 071°25'0 0.0
2018-Jan-10 14:29N 41°35' W 071°25'0 0.0
2018-Jan-10 13:59N 41°35' W 071°25'0 0.0
2018-Jan-10 12:41N 41°35' W 071°25'0 0.0
2018-Jan-10 12:29N 41°35' W 071°25'0 0.0
2018-Jan-10 11:59N 41°35' W 071°25'0 0.0
2018-Jan-10 11:29N 41°35' W 071°25'0 0.0
2018-Jan-10 10:59N 41°35' W 071°25'0 0.0
2018-Jan-10 10:23N 41°35' W 071°25'0 0.0
2018-Jan-10 09:47N 41°35' W 071°25'0 0.0
2018-Jan-10 09:29N 41°35' W 071°25'0 0.0
2018-Jan-10 09:00N 41°35' W 071°25'0 0.0
2018-Jan-10 07:59N 41°35' W 071°25'0 0.0
2018-Jan-10 07:30N 41°35' W 071°25'0 0.0
2018-Jan-10 07:00N 41°35' W 071°25'0 0.0
2018-Jan-10 06:30N 41°35' W 071°25'0 0.0
2018-Jan-10 06:00N 41°35' W 071°25'0 0.0
2018-Jan-10 05:30N 41°35' W 071°25'0 0.0
2018-Jan-10 05:00N 41°35' W 071°25'1 1.6
2018-Jan-10 04:30N 41°35' W 071°24'5 9.8
2018-Jan-10 04:00N 41°30' W 071°21'12610.4
2018-Jan-09 15:55N 40°46' W 073°57'410.3
2018-Jan-09 15:31N 40°42' W 074°00'3 6.0
2018-Jan-09 15:00N 40°40' W 074°03'4 7.9
2018-Jan-09 14:31N 40°38' W 074°08'0 0.0
2018-Jan-09 13:57N 40°38' W 074°08'0 0.0
2018-Jan-09 13:30N 40°38' W 074°08'0 0.0
2018-Jan-09 13:00N 40°38' W 074°08'1 1.8
2018-Jan-09 12:23N 40°39' W 074°06'410.1
2018-Jan-09 12:00N 40°40' W 074°02'1 1.4
2018-Jan-09 11:30N 40°40' W 074°01'0 0.0
2018-Jan-09 11:00N 40°40' W 074°01'0 0.0
2018-Jan-09 10:30N 40°40' W 074°01'0 0.0
2018-Jan-09 10:00N 40°40' W 074°01'0 0.0
2018-Jan-09 09:30N 40°40' W 074°01'0 0.0
2018-Jan-09 09:00N 40°40' W 074°01'0 0.0
2018-Jan-09 08:30N 40°40' W 074°01'0 0.0
2018-Jan-09 08:00N 40°40' W 074°01'0 0.0
2018-Jan-09 07:30N 40°40' W 074°01'0 0.0
2018-Jan-09 07:00N 40°40' W 074°01'0 0.0
2018-Jan-09 06:30N 40°40' W 074°01'0 0.0
2018-Jan-09 06:00N 40°40' W 074°01'0 0.0
2018-Jan-09 05:30N 40°40' W 074°01'0 0.0
2018-Jan-09 05:00N 40°40' W 074°01'0 0.0
2018-Jan-09 04:30N 40°40' W 074°01'0 0.0
2018-Jan-09 04:00N 40°40' W 074°01'0 0.0
2018-Jan-09 03:30N 40°40' W 074°01'0 0.0
2018-Jan-09 03:00N 40°40' W 074°01'0 0.0
2018-Jan-09 02:30N 40°40' W 074°01'0 0.0
2018-Jan-09 02:00N 40°40' W 074°01'0 0.0
2018-Jan-09 01:30N 40°40' W 074°01'0 0.0
2018-Jan-09 01:00N 40°40' W 074°01'1 2.8
2018-Jan-09 00:30N 40°40' W 074°03'1 2.0
2018-Jan-09 00:00N 40°40' W 074°04'0 0.1
2018-Jan-08 23:30N 40°40' W 074°04'2 4.7
2018-Jan-08 23:00N 40°40' W 074°01'0 0.0
2018-Jan-08 22:30N 40°40' W 074°01'2 3.5
2018-Jan-08 22:00N 40°40' W 074°03'2 3.5
2018-Jan-08 21:30N 40°40' W 074°01'0 0.0
2018-Jan-08 21:00N 40°40' W 074°01'0 0.0
2018-Jan-08 20:30N 40°40' W 074°01'3 6.2
2018-Jan-08 20:00N 40°43' W 074°01'  
2018-Jan-04 08:16N 40°47' W 073°60'2 6.1
2018-Jan-04 08:00N 40°46' W 074°00'3 6.6
2018-Jan-04 07:30N 40°43' W 074°02'4 7.2
2018-Jan-04 07:00N 40°39' W 074°03'3 7.0
2018-Jan-04 06:31N 40°39' W 074°08'2 4.1
2018-Jan-04 05:57N 40°39' W 074°11'3 5.5
2018-Jan-04 05:30N 40°37' W 074°12'2 3.1
2018-Jan-04 05:00N 40°35' W 074°13'2 0.6
2018-Jan-04 02:13N 40°37' W 074°12'2 7.9
2018-Jan-04 02:00N 40°38' W 074°12'1 2.5
2018-Jan-04 01:29N 40°39' W 074°10'0 0.0
2018-Jan-04 00:59N 40°39' W 074°10'0 0.0
2018-Jan-04 00:29N 40°39' W 074°10'0 0.0
2018-Jan-03 23:59N 40°39' W 074°10'0 0.2
2018-Jan-03 23:30N 40°39' W 074°10'4 2.9
2018-Jan-03 22:05N 40°35' W 074°13'2 8.2
2018-Jan-03 21:50N 40°37' W 074°12'3 7.5
2018-Jan-03 21:26N 40°39' W 074°09'1 2.3
2018-Jan-03 21:00N 40°38' W 074°08'0 0.0
2018-Jan-03 20:27N 40°38' W 074°08'0 0.0
2018-Jan-03 19:57N 40°38' W 074°08'0 0.1
2018-Jan-03 19:21N 40°38' W 074°08'0 0.0
2018-Jan-03 18:57N 40°38' W 074°08'0 0.0
2018-Jan-03 18:27N 40°38' W 074°08'0 0.0
2018-Jan-03 18:00N 40°38' W 074°08'0 0.0
2018-Jan-03 17:29N 40°38' W 074°08'0 0.0
2018-Jan-03 16:59N 40°38' W 074°08'0 0.0
2018-Jan-03 16:29N 40°38' W 074°08'0 0.0
2018-Jan-03 15:59N 40°38' W 074°08'0 0.0
2018-Jan-03 15:29N 40°38' W 074°08'0 0.0
2018-Jan-03 14:59N 40°38' W 074°08'0 0.0
2018-Jan-03 14:29N 40°38' W 074°08'0 0.0
2018-Jan-03 13:59N 40°38' W 074°08'2 3.7
2018-Jan-03 13:30N 40°39' W 074°10'3 3.4
2018-Jan-03 12:37N 40°36' W 074°12'1 8.8
2018-Jan-03 12:30N 40°37' W 074°12'4 7.7
2018-Jan-03 11:59N 40°39' W 074°07'5 9.7
2018-Jan-03 11:30N 40°40' W 074°02'1 1.3
2018-Jan-03 11:00N 40°40' W 074°01'0 0.0
2018-Jan-03 10:30N 40°40' W 074°01'0 0.0
2018-Jan-03 10:00N 40°40' W 074°01'0 0.0
2018-Jan-03 09:30N 40°40' W 074°01'3 5.2
2018-Jan-03 09:00N 40°39' W 074°04'2 3.9
2018-Jan-03 08:30N 40°39' W 074°07'0 0.0
2018-Jan-03 08:00N 40°39' W 074°07'0 0.0
2018-Jan-03 07:30N 40°39' W 074°07'0 0.0
2018-Jan-03 07:00N 40°39' W 074°07'0 0.0
2018-Jan-03 06:30N 40°39' W 074°07'1 1.9
2018-Jan-03 06:00N 40°39' W 074°08'4 7.7
2018-Jan-03 05:30N 40°37' W 074°12'2 0.9
2018-Jan-03 03:40N 40°35' W 074°13'0 0.1
2018-Jan-03 03:30N 40°35' W 074°13'0 0.1
2018-Jan-03 03:00N 40°35' W 074°13'9 5.1
2018-Jan-03 01:11N 40°29' W 074°03'6 8.3
2018-Jan-03 00:31N 40°34' W 074°02'0 8.4
2018-Jan-03 00:30N 40°34' W 074°02'4 8.4
2018-Jan-03 00:00N 40°38' W 074°03'4 8.0
2018-Jan-02 23:30N 40°39' W 074°08'2 4.4
2018-Jan-02 23:00N 40°39' W 074°11'0 0.1
2018-Jan-02 22:30N 40°39' W 074°11'2 3.3
2018-Jan-02 22:00N 40°39' W 074°09'4 8.9
2018-Jan-02 21:30N 40°39' W 074°03'611.1
2018-Jan-02 21:00N 40°45' W 074°01'712.5
2018-Jan-02 20:26N 40°51' W 073°57'6 0.4
2018-Jan-02 06:36N 40°46' W 074°00'1 6.8
2018-Jan-02 06:30N 40°45' W 074°01'3 6.7
2018-Jan-02 06:00N 40°42' W 074°01'5 9.7
2018-Jan-02 05:30N 40°46' W 073°57'61 9.4
2018-Jan-01 23:01N 41°11' W 072°44'010.1
2018-Jan-01 22:58N 41°11' W 072°43'5 9.9
2018-Jan-01 22:30N 41°12' W 072°37'5 9.5
2018-Jan-01 22:00N 41°12' W 072°31'4 7.8
2018-Jan-01 21:30N 41°12' W 072°26'4 7.1
2018-Jan-01 21:01N 41°13' W 072°21'3 6.0
2018-Jan-01 20:30N 41°13' W 072°17'3 6.8
2018-Jan-01 20:00N 41°14' W 072°13'44 7.2
2018-Jan-01 13:52N 41°32' W 071°20'511.1
2018-Jan-01 13:28N 41°37' W 071°18'510.1
2018-Jan-01 13:00N 41°41' W 071°19'6 6.1
2018-Jan-01 11:58N 41°47' W 071°22'0 0.0
2018-Jan-01 10:07N 41°47' W 071°22'0 0.0
2018-Jan-01 09:49N 41°47' W 071°22'0 0.0
2018-Jan-01 09:19N 41°47' W 071°22'0 0.0
2018-Jan-01 08:13N 41°47' W 071°22'0 0.0
2018-Jan-01 07:25N 41°47' W 071°22'0 0.0
2018-Jan-01 06:49N 41°47' W 071°22'0 0.0
2018-Jan-01 05:55N 41°47' W 071°22'0 0.0
2018-Jan-01 05:13N 41°47' W 071°22'0 0.0
2018-Jan-01 04:31N 41°47' W 071°22'0 0.0
2018-Jan-01 03:49N 41°47' W 071°22'0 0.0
2018-Jan-01 03:25N 41°47' W 071°22'0 0.0
2018-Jan-01 02:34N 41°47' W 071°22'0 0.1
2018-Jan-01 02:29N 41°47' W 071°22'0 0.0
2018-Jan-01 01:56N 41°47' W 071°22'0 0.0
2018-Jan-01 01:28N 41°47' W 071°22'0 0.0
2018-Jan-01 00:29N 41°47' W 071°22'12 3.4
2017-Dec-31 20:56N 41°35' W 071°18'4 8.6
2017-Dec-31 20:30N 41°32' W 071°20'  
Track history (hours):
 
Tides and Currents Weather Stations Pressure Air Temp Water Temp Dewpoint Dewpoint Depression Visibility Wind Speed Wind Dir Waves Ship Positions

Haggerty Girls

Owner: REINAUER TRANSPORTATION CO.,LLC, STATEN ISLAND, NY. More information available from US FCC via Universal Licensing System and Coast Guard Vessel Documentation Center.

Last reported at 2018-Jan-10 18:30 UTC. Time now 2018-Jan-22 13:54 UTC.
Position N 41°35' W 071°25'.
Warning: this ship's position is 11 days out of date.

Length 146 m; draft 7.5 m.

Type: . MMSI: 367590780.

Date/timePositionNaut miles runAvg speedWind from/ knotsBaromVisibWave heightAir tempDewpointWater temp
2018-Jan-10 18:30N 41°35' W 071°25'0 0.0
2018-Jan-10 17:48N 41°35' W 071°25'0 0.0
2018-Jan-10 17:30N 41°35' W 071°25'0 0.0
2018-Jan-10 16:53N 41°35' W 071°25'0 0.0
2018-Jan-10 16:30N 41°35' W 071°25'0 0.0
2018-Jan-10 15:54N 41°35' W 071°25'0 0.0
2018-Jan-10 15:29N 41°35' W 071°25'0 0.0
2018-Jan-10 14:59N 41°35' W 071°25'0 0.0
2018-Jan-10 14:29N 41°35' W 071°25'0 0.0
2018-Jan-10 13:59N 41°35' W 071°25'0 0.0
2018-Jan-10 12:41N 41°35' W 071°25'0 0.0
2018-Jan-10 12:29N 41°35' W 071°25'0 0.0
2018-Jan-10 11:59N 41°35' W 071°25'0 0.0
2018-Jan-10 11:29N 41°35' W 071°25'0 0.0
2018-Jan-10 10:59N 41°35' W 071°25'0 0.0
2018-Jan-10 10:23N 41°35' W 071°25'0 0.0
2018-Jan-10 09:47N 41°35' W 071°25'0 0.0
2018-Jan-10 09:29N 41°35' W 071°25'0 0.0
2018-Jan-10 09:00N 41°35' W 071°25'0 0.0
2018-Jan-10 07:59N 41°35' W 071°25'0 0.0
2018-Jan-10 07:30N 41°35' W 071°25'0 0.0
2018-Jan-10 07:00N 41°35' W 071°25'0 0.0
2018-Jan-10 06:30N 41°35' W 071°25'0 0.0
2018-Jan-10 06:00N 41°35' W 071°25'0 0.0
2018-Jan-10 05:30N 41°35' W 071°25'0 0.0
2018-Jan-10 05:00N 41°35' W 071°25'1 1.6
2018-Jan-10 04:30N 41°35' W 071°24'5 9.8
2018-Jan-10 04:00N 41°30' W 071°21'12610.4
2018-Jan-09 15:55N 40°46' W 073°57'410.3
2018-Jan-09 15:31N 40°42' W 074°00'3 6.0
2018-Jan-09 15:00N 40°40' W 074°03'4 7.9
2018-Jan-09 14:31N 40°38' W 074°08'0 0.0
2018-Jan-09 13:57N 40°38' W 074°08'0 0.0
2018-Jan-09 13:30N 40°38' W 074°08'0 0.0
2018-Jan-09 13:00N 40°38' W 074°08'1 1.8
2018-Jan-09 12:23N 40°39' W 074°06'410.1
2018-Jan-09 12:00N 40°40' W 074°02'1 1.4
2018-Jan-09 11:30N 40°40' W 074°01'0 0.0
2018-Jan-09 11:00N 40°40' W 074°01'0 0.0
2018-Jan-09 10:30N 40°40' W 074°01'0 0.0
2018-Jan-09 10:00N 40°40' W 074°01'0 0.0
2018-Jan-09 09:30N 40°40' W 074°01'0 0.0
2018-Jan-09 09:00N 40°40' W 074°01'0 0.0
2018-Jan-09 08:30N 40°40' W 074°01'0 0.0
2018-Jan-09 08:00N 40°40' W 074°01'0 0.0
2018-Jan-09 07:30N 40°40' W 074°01'0 0.0
2018-Jan-09 07:00N 40°40' W 074°01'0 0.0
2018-Jan-09 06:30N 40°40' W 074°01'0 0.0
2018-Jan-09 06:00N 40°40' W 074°01'0 0.0
2018-Jan-09 05:30N 40°40' W 074°01'0 0.0
2018-Jan-09 05:00N 40°40' W 074°01'0 0.0
2018-Jan-09 04:30N 40°40' W 074°01'0 0.0
2018-Jan-09 04:00N 40°40' W 074°01'0 0.0
2018-Jan-09 03:30N 40°40' W 074°01'0 0.0
2018-Jan-09 03:00N 40°40' W 074°01'0 0.0
2018-Jan-09 02:30N 40°40' W 074°01'0 0.0
2018-Jan-09 02:00N 40°40' W 074°01'0 0.0
2018-Jan-09 01:30N 40°40' W 074°01'0 0.0
2018-Jan-09 01:00N 40°40' W 074°01'1 2.8
2018-Jan-09 00:30N 40°40' W 074°03'1 2.0
2018-Jan-09 00:00N 40°40' W 074°04'0 0.1
2018-Jan-08 23:30N 40°40' W 074°04'2 4.7
2018-Jan-08 23:00N 40°40' W 074°01'0 0.0
2018-Jan-08 22:30N 40°40' W 074°01'2 3.5
2018-Jan-08 22:00N 40°40' W 074°03'2 3.5
2018-Jan-08 21:30N 40°40' W 074°01'0 0.0
2018-Jan-08 21:00N 40°40' W 074°01'0 0.0
2018-Jan-08 20:30N 40°40' W 074°01'3 6.2
2018-Jan-08 20:00N 40°43' W 074°01'  
2018-Jan-04 08:16N 40°47' W 073°60'2 6.1
2018-Jan-04 08:00N 40°46' W 074°00'3 6.6
2018-Jan-04 07:30N 40°43' W 074°02'4 7.2
2018-Jan-04 07:00N 40°39' W 074°03'3 7.0
2018-Jan-04 06:31N 40°39' W 074°08'2 4.1
2018-Jan-04 05:57N 40°39' W 074°11'3 5.5
2018-Jan-04 05:30N 40°37' W 074°12'2 3.1
2018-Jan-04 05:00N 40°35' W 074°13'2 0.6
2018-Jan-04 02:13N 40°37' W 074°12'2 7.9
2018-Jan-04 02:00N 40°38' W 074°12'1 2.5
2018-Jan-04 01:29N 40°39' W 074°10'0 0.0
2018-Jan-04 00:59N 40°39' W 074°10'0 0.0
2018-Jan-04 00:29N 40°39' W 074°10'0 0.0
2018-Jan-03 23:59N 40°39' W 074°10'0 0.2
2018-Jan-03 23:30N 40°39' W 074°10'4 2.9
2018-Jan-03 22:05N 40°35' W 074°13'2 8.2
2018-Jan-03 21:50N 40°37' W 074°12'3 7.5
2018-Jan-03 21:26N 40°39' W 074°09'1 2.3
2018-Jan-03 21:00N 40°38' W 074°08'0 0.0
2018-Jan-03 20:27N 40°38' W 074°08'0 0.0
2018-Jan-03 19:57N 40°38' W 074°08'0 0.1
2018-Jan-03 19:21N 40°38' W 074°08'0 0.0
2018-Jan-03 18:57N 40°38' W 074°08'0 0.0
2018-Jan-03 18:27N 40°38' W 074°08'0 0.0
2018-Jan-03 18:00N 40°38' W 074°08'0 0.0
2018-Jan-03 17:29N 40°38' W 074°08'0 0.0
2018-Jan-03 16:59N 40°38' W 074°08'0 0.0
2018-Jan-03 16:29N 40°38' W 074°08'0 0.0
2018-Jan-03 15:59N 40°38' W 074°08'0 0.0
2018-Jan-03 15:29N 40°38' W 074°08'0 0.0
2018-Jan-03 14:59N 40°38' W 074°08'0 0.0
2018-Jan-03 14:29N 40°38' W 074°08'0 0.0
2018-Jan-03 13:59N 40°38' W 074°08'2 3.7
2018-Jan-03 13:30N 40°39' W 074°10'3 3.4
2018-Jan-03 12:37N 40°36' W 074°12'1 8.8
2018-Jan-03 12:30N 40°37' W 074°12'4 7.7
2018-Jan-03 11:59N 40°39' W 074°07'5 9.7
2018-Jan-03 11:30N 40°40' W 074°02'1 1.3
2018-Jan-03 11:00N 40°40' W 074°01'0 0.0
2018-Jan-03 10:30N 40°40' W 074°01'0 0.0
2018-Jan-03 10:00N 40°40' W 074°01'0 0.0
2018-Jan-03 09:30N 40°40' W 074°01'3 5.2
2018-Jan-03 09:00N 40°39' W 074°04'2 3.9
2018-Jan-03 08:30N 40°39' W 074°07'0 0.0
2018-Jan-03 08:00N 40°39' W 074°07'0 0.0
2018-Jan-03 07:30N 40°39' W 074°07'0 0.0
2018-Jan-03 07:00N 40°39' W 074°07'0 0.0
2018-Jan-03 06:30N 40°39' W 074°07'1 1.9
2018-Jan-03 06:00N 40°39' W 074°08'4 7.7
2018-Jan-03 05:30N 40°37' W 074°12'2 0.9
2018-Jan-03 03:40N 40°35' W 074°13'0 0.1
2018-Jan-03 03:30N 40°35' W 074°13'0 0.1
2018-Jan-03 03:00N 40°35' W 074°13'9 5.1
2018-Jan-03 01:11N 40°29' W 074°03'6 8.3
2018-Jan-03 00:31N 40°34' W 074°02'0 8.4
2018-Jan-03 00:30N 40°34' W 074°02'4 8.4
2018-Jan-03 00:00N 40°38' W 074°03'4 8.0
2018-Jan-02 23:30N 40°39' W 074°08'2 4.4
2018-Jan-02 23:00N 40°39' W 074°11'0 0.1
2018-Jan-02 22:30N 40°39' W 074°11'2 3.3
2018-Jan-02 22:00N 40°39' W 074°09'4 8.9
2018-Jan-02 21:30N 40°39' W 074°03'611.1
2018-Jan-02 21:00N 40°45' W 074°01'712.5
2018-Jan-02 20:26N 40°51' W 073°57'6 0.4
2018-Jan-02 06:36N 40°46' W 074°00'1 6.8
2018-Jan-02 06:30N 40°45' W 074°01'3 6.7
2018-Jan-02 06:00N 40°42' W 074°01'5 9.7
2018-Jan-02 05:30N 40°46' W 073°57'61 9.4
2018-Jan-01 23:01N 41°11' W 072°44'010.1
2018-Jan-01 22:58N 41°11' W 072°43'5 9.9
2018-Jan-01 22:30N 41°12' W 072°37'5 9.5
2018-Jan-01 22:00N 41°12' W 072°31'4 7.8
2018-Jan-01 21:30N 41°12' W 072°26'4 7.1
2018-Jan-01 21:01N 41°13' W 072°21'3 6.0
2018-Jan-01 20:30N 41°13' W 072°17'3 6.8
2018-Jan-01 20:00N 41°14' W 072°13'44 7.2
2018-Jan-01 13:52N 41°32' W 071°20'511.1
2018-Jan-01 13:28N 41°37' W 071°18'510.1
2018-Jan-01 13:00N 41°41' W 071°19'6 6.1
2018-Jan-01 11:58N 41°47' W 071°22'0 0.0
2018-Jan-01 10:07N 41°47' W 071°22'0 0.0
2018-Jan-01 09:49N 41°47' W 071°22'0 0.0
2018-Jan-01 09:19N 41°47' W 071°22'0 0.0
2018-Jan-01 08:13N 41°47' W 071°22'0 0.0
2018-Jan-01 07:25N 41°47' W 071°22'0 0.0
2018-Jan-01 06:49N 41°47' W 071°22'0 0.0
2018-Jan-01 05:55N 41°47' W 071°22'0 0.0
2018-Jan-01 05:13N 41°47' W 071°22'0 0.0
2018-Jan-01 04:31N 41°47' W 071°22'0 0.0
2018-Jan-01 03:49N 41°47' W 071°22'0 0.0
2018-Jan-01 03:25N 41°47' W 071°22'0 0.0
2018-Jan-01 02:34N 41°47' W 071°22'0 0.1
2018-Jan-01 02:29N 41°47' W 071°22'0 0.0
2018-Jan-01 01:56N 41°47' W 071°22'0 0.0
2018-Jan-01 01:28N 41°47' W 071°22'0 0.0
2018-Jan-01 00:29N 41°47' W 071°22'12 3.4
2017-Dec-31 20:56N 41°35' W 071°18'4 8.6
2017-Dec-31 20:30N 41°32' W 071°20'  

Dump ship's entire track history